Time;durP1;ratioP1;P1;durP2;ratioP2;P2;SDS_P1;SDS_P2;PMS_P1;PMS_P2;Temp;Humidity;BMP_temperature;BMP_pressure;BME280_temperature;BME280_humidity;BME280_pressure;Samples;Min_cycle;Max_cycle;Signal;HPM_P1;HPM_P2
2023/10/17 00:02:49;;;;;;;11.75;6.30;;;8.40;99.90;;;;;;5100344;28;20020;-80
2023/10/17 00:05:15;;;;;;;9.77;5.45;;;8.40;99.90;;;;;;5099903;28;20042;-78
2023/10/17 00:07:46;;;;;;;9.52;5.90;;;8.40;99.90;;;;;;5101865;28;20092;-79
2023/10/17 00:10:18;;;;;;;11.80;6.25;;;8.40;99.90;;;;;;5100235;28;20023;-81
2023/10/17 00:12:51;;;;;;;10.07;5.40;;;8.50;99.90;;;;;;5100209;28;20031;-80
2023/10/17 00:15:35;;;;;;;12.47;6.07;;;8.50;99.90;;;;;;5100350;28;20024;-81
2023/10/17 00:18:11;;;;;;;16.08;6.93;;;8.50;99.90;;;;;;5100704;28;20061;-81
2023/10/17 00:20:37;;;;;;;14.98;7.70;;;8.60;99.90;;;;;;5099477;28;20043;-84
2023/10/17 00:23:07;;;;;;;15.00;7.80;;;8.60;99.90;;;;;;5101392;28;20024;-79
2023/10/17 00:25:35;;;;;;;20.00;7.75;;;8.60;99.90;;;;;;5104217;28;20081;-79
2023/10/17 00:28:02;;;;;;;16.25;8.23;;;8.50;99.90;;;;;;5105666;28;20020;-78
2023/10/17 00:30:30;;;;;;;17.23;7.80;;;8.60;99.90;;;;;;5103788;28;20063;-80
2023/10/17 00:32:55;;;;;;;16.75;7.57;;;8.60;99.90;;;;;;5104012;28;20603;-81
2023/10/17 00:35:25;;;;;;;14.38;7.63;;;8.60;99.90;;;;;;5103857;28;20098;-84
2023/10/17 00:37:58;;;;;;;18.13;7.88;;;8.60;99.90;;;;;;5103887;28;20024;-82
2023/10/17 00:40:34;;;;;;;15.75;7.90;;;8.60;99.90;;;;;;5104692;28;20043;-81
2023/10/17 00:43:05;;;;;;;13.15;7.30;;;8.70;99.90;;;;;;5105424;28;20441;-79
2023/10/17 00:45:34;;;;;;;14.70;7.97;;;8.50;99.90;;;;;;5104067;28;20696;-81
2023/10/17 00:48:02;;;;;;;16.40;8.65;;;8.40;99.90;;;;;;5103683;28;20024;-81
2023/10/17 00:50:28;;;;;;;15.98;7.88;;;8.40;99.90;;;;;;5103770;28;20050;-82
2023/10/17 00:52:56;;;;;;;11.70;7.13;;;8.50;99.90;;;;;;5103476;28;20431;-81
2023/10/17 00:55:24;;;;;;;12.63;7.13;;;8.50;99.90;;;;;;5103106;28;20068;-81
2023/10/17 00:57:52;;;;;;;14.43;7.60;;;8.40;99.90;;;;;;5104116;28;20039;-81
2023/10/17 01:00:39;;;;;;;13.60;7.28;;;8.50;99.90;;;;;;5102555;28;20039;-81
2023/10/17 01:03:10;;;;;;;14.88;7.50;;;8.50;99.90;;;;;;5104251;28;20028;-80
2023/10/17 01:08:50;;;;;;;11.68;6.78;;;8.60;99.90;;;;;;5103948;28;20028;-81
2023/10/17 01:11:22;;;;;;;9.57;6.63;;;8.50;99.90;;;;;;5103389;28;20104;-83
2023/10/17 01:13:52;;;;;;;12.80;7.30;;;8.50;99.90;;;;;;5102464;28;20706;-81
2023/10/17 01:16:22;;;;;;;15.45;6.93;;;8.50;99.90;;;;;;5103710;28;20023;-81
2023/10/17 01:18:48;;;;;;;13.00;6.20;;;8.60;99.90;;;;;;5103687;28;20024;-82
2023/10/17 01:21:20;;;;;;;12.77;6.70;;;8.60;99.90;;;;;;5103365;28;20130;-81
2023/10/17 01:23:48;;;;;;;11.88;6.30;;;8.70;99.90;;;;;;5104354;28;20091;-80
2023/10/17 01:26:14;;;;;;;11.63;6.40;;;8.60;99.90;;;;;;5102222;28;20048;-81
2023/10/17 01:28:48;;;;;;;15.15;6.20;;;8.50;99.90;;;;;;5102404;28;20028;-79
2023/10/17 01:31:16;;;;;;;12.93;6.20;;;8.60;99.90;;;;;;5104851;28;20082;-82
2023/10/17 01:33:45;;;;;;;11.88;6.20;;;8.60;99.90;;;;;;5102401;28;20043;-81
2023/10/17 01:36:13;;;;;;;11.15;5.70;;;8.60;99.90;;;;;;5102585;28;20054;-81
2023/10/17 01:38:42;;;;;;;10.95;6.00;;;8.60;99.90;;;;;;5104102;28;20008;-82
2023/10/17 01:41:10;;;;;;;12.10;5.90;;;8.60;99.90;;;;;;5102402;28;20366;-81
2023/10/17 01:43:40;;;;;;;11.90;5.85;;;8.60;99.90;;;;;;5102730;28;20054;-79
2023/10/17 01:46:11;;;;;;;13.63;5.80;;;8.60;99.90;;;;;;5103707;28;20020;-81
2023/10/17 01:48:40;;;;;;;15.88;6.38;;;8.60;99.90;;;;;;5101934;28;20039;-80
2023/10/17 01:51:07;;;;;;;10.48;6.18;;;8.60;99.90;;;;;;5103143;28;20028;-80
2023/10/17 01:53:38;;;;;;;10.82;6.18;;;8.70;99.90;;;;;;5102331;28;20020;-81
2023/10/17 01:56:13;;;;;;;8.90;5.65;;;8.60;99.90;;;;;;5102854;28;20036;-80
2023/10/17 01:58:48;;;;;;;8.20;4.82;;;8.70;99.90;;;;;;5102318;28;20039;-81
2023/10/17 02:01:24;;;;;;;8.65;4.93;;;8.70;99.90;;;;;;5101019;28;20404;-81
2023/10/17 02:03:53;;;;;;;12.25;5.00;;;8.70;99.90;;;;;;5102335;28;20024;-80
2023/10/17 02:06:22;;;;;;;12.52;5.50;;;8.70;99.90;;;;;;5102976;28;20506;-84
2023/10/17 02:08:48;;;;;;;8.80;4.70;;;8.70;99.90;;;;;;5101253;28;20023;-82
2023/10/17 02:11:23;;;;;;;9.55;5.30;;;8.70;99.90;;;;;;5102163;28;20046;-80
2023/10/17 02:13:59;;;;;;;10.10;5.35;;;8.70;99.90;;;;;;5104092;28;20080;-82
2023/10/17 02:16:28;;;;;;;10.63;5.43;;;8.70;99.90;;;;;;5103234;28;20050;-80
2023/10/17 02:18:58;;;;;;;10.70;5.75;;;8.70;99.90;;;;;;5102001;28;21611;-81
2023/10/17 02:21:25;;;;;;;10.10;5.22;;;8.60;99.90;;;;;;5101702;28;20036;-82
2023/10/17 02:23:51;;;;;;;9.48;5.32;;;8.60;99.90;;;;;;5101839;28;20028;-83
2023/10/17 02:26:21;;;;;;;9.35;5.53;;;8.70;99.90;;;;;;5101714;28;20032;-82
2023/10/17 02:28:51;;;;;;;10.80;5.20;;;8.70;99.90;;;;;;5101702;28;20016;-81
2023/10/17 02:31:27;;;;;;;11.15;5.50;;;8.60;99.90;;;;;;5101892;28;20131;-81
2023/10/17 02:33:54;;;;;;;11.98;5.22;;;8.80;99.90;;;;;;5102451;28;20024;-82
2023/10/17 02:36:20;;;;;;;9.55;5.47;;;8.70;99.90;;;;;;5103267;28;20024;-80
2023/10/17 02:38:45;;;;;;;11.20;5.07;;;8.70;99.90;;;;;;5103457;28;20024;-81
2023/10/17 02:41:18;;;;;;;11.63;5.40;;;8.80;99.90;;;;;;5101377;28;20499;-82
2023/10/17 02:43:56;;;;;;;15.95;5.40;;;8.70;99.90;;;;;;5101115;28;20400;-81
2023/10/17 02:46:26;;;;;;;9.18;4.75;;;8.70;99.90;;;;;;5100896;28;20024;-82
2023/10/17 02:48:56;;;;;;;13.48;4.78;;;8.70;99.90;;;;;;5101169;28;20047;-81
2023/10/17 02:53:53;;;;;;;10.60;5.45;;;8.70;99.90;;;;;;5103047;28;20024;-83
2023/10/17 02:56:23;;;;;;;13.57;5.53;;;8.70;99.90;;;;;;5101224;28;20056;-82
2023/10/17 02:58:52;;;;;;;14.25;5.60;;;8.70;99.90;;;;;;5100705;28;20040;-81
2023/10/17 03:01:19;;;;;;;14.40;5.40;;;8.60;99.90;;;;;;5101635;28;20082;-82
2023/10/17 03:03:51;;;;;;;12.48;5.32;;;8.70;99.90;;;;;;5101189;28;20493;-82
2023/10/17 03:06:19;;;;;;;10.43;5.70;;;8.70;99.90;;;;;;5101273;28;20080;-81
2023/10/17 03:08:51;;;;;;;10.63;5.10;;;8.70;99.90;;;;;;5100889;28;20031;-83
2023/10/17 03:11:26;;;;;;;18.20;5.32;;;8.70;99.90;;;;;;5100923;28;20020;-83
2023/10/17 03:13:52;;;;;;;12.35;5.10;;;8.70;99.90;;;;;;5101805;28;20032;-83
2023/10/17 03:16:26;;;;;;;13.43;5.00;;;8.60;99.90;;;;;;5100425;28;20039;-82
2023/10/17 03:18:56;;;;;;;12.45;5.55;;;8.60;99.90;;;;;;5099990;28;20211;-82
2023/10/17 03:21:33;;;;;;;10.45;4.97;;;8.60;99.90;;;;;;5100908;28;20035;-82
2023/10/17 03:24:01;;;;;;;9.93;4.65;;;8.60;99.90;;;;;;5101190;28;20024;-83
2023/10/17 03:26:38;;;;;;;11.18;5.10;;;8.60;99.90;;;;;;5100735;28;20084;-82
2023/10/17 03:29:12;;;;;;;10.18;5.47;;;8.60;99.90;;;;;;5101140;28;20016;-84
2023/10/17 03:31:38;;;;;;;13.77;5.88;;;8.60;99.90;;;;;;5100929;28;20032;-83
2023/10/17 03:34:05;;;;;;;12.15;5.40;;;8.70;99.90;;;;;;5101646;28;20151;-82
2023/10/17 03:39:19;;;;;;;13.13;5.93;;;8.60;99.90;;;;;;5101847;28;20024;-83
2023/10/17 03:41:45;;;;;;;14.25;5.45;;;8.60;99.90;;;;;;5100661;28;20095;-83
2023/10/17 03:44:15;;;;;;;14.77;6.35;;;8.70;99.90;;;;;;5100508;28;20055;-85
2023/10/17 03:46:46;;;;;;;16.25;5.32;;;8.60;99.90;;;;;;5100674;28;20020;-84
2023/10/17 03:49:18;;;;;;;13.98;6.07;;;8.70;99.90;;;;;;5100968;28;20024;-85
2023/10/17 03:51:52;;;;;;;11.52;5.70;;;8.60;99.90;;;;;;5100167;28;20107;-83
2023/10/17 03:54:20;;;;;;;14.07;6.00;;;8.80;99.90;;;;;;5100374;28;20119;-84
2023/10/17 03:56:45;;;;;;;9.40;5.95;;;8.70;99.90;;;;;;5100839;28;20032;-84
2023/10/17 03:59:25;;;;;;;10.95;5.82;;;8.70;99.90;;;;;;5101363;28;20049;-85
2023/10/17 04:01:52;;;;;;;8.50;5.72;;;8.70;99.90;;;;;;5100385;28;20020;-82
2023/10/17 04:04:25;;;;;;;10.75;5.43;;;8.60;99.90;;;;;;5100290;28;20031;-81
2023/10/17 04:06:51;;;;;;;10.60;5.57;;;8.70;99.90;;;;;;5100674;28;20055;-83
2023/10/17 04:09:37;;;;;;;11.88;6.30;;;8.70;99.90;;;;;;5100640;28;20024;-84
2023/10/17 04:12:03;;;;;;;10.52;6.00;;;8.60;99.90;;;;;;5100503;28;20047;-82
2023/10/17 04:14:44;;;;;;;9.02;5.65;;;8.60;99.90;;;;;;5100488;28;20024;-79
2023/10/17 04:17:14;;;;;;;11.32;6.00;;;8.60;99.90;;;;;;5100548;28;20036;-77
2023/10/17 04:19:39;;;;;;;13.00;6.53;;;8.60;99.90;;;;;;5101608;28;20487;-78
2023/10/17 04:22:08;;;;;;;16.23;6.95;;;8.60;99.90;;;;;;5100084;28;20025;-79
2023/10/17 04:24:34;;;;;;;10.95;6.75;;;8.60;99.90;;;;;;5101092;28;20012;-79
2023/10/17 04:29:43;;;;;;;10.85;6.18;;;8.60;99.90;;;;;;5101260;28;20040;-79
2023/10/17 04:32:14;;;;;;;15.13;6.43;;;8.50;99.90;;;;;;5101023;28;20067;-79
2023/10/17 04:34:45;;;;;;;15.88;6.50;;;8.50;99.90;;;;;;5099497;28;20031;-81
2023/10/17 04:37:16;;;;;;;10.05;6.40;;;8.60;99.90;;;;;;5100892;28;20035;-79
2023/10/17 04:39:50;;;;;;;14.95;7.40;;;8.50;99.90;;;;;;5099695;28;20064;-80
2023/10/17 04:42:25;;;;;;;11.98;7.43;;;8.40;99.90;;;;;;5099280;28;20028;-78
2023/10/17 04:44:52;;;;;;;13.95;7.97;;;8.50;99.90;;;;;;5101571;28;20020;-78
2023/10/17 04:49:50;;;;;;;10.85;7.35;;;8.50;99.90;;;;;;5100094;28;20054;-80
2023/10/17 04:52:30;;;;;;;17.67;8.68;;;8.40;99.90;;;;;;5097515;28;20032;-79
2023/10/17 04:55:18;;;;;;;15.77;8.82;;;8.40;99.90;;;;;;5100478;28;20048;-81
2023/10/17 04:58:30;;;;;;;14.70;8.30;;;8.20;99.90;;;;;;5100745;28;20116;-78
2023/10/17 05:01:10;;;;;;;14.07;8.38;;;8.20;99.90;;;;;;5100270;28;20052;-78
2023/10/17 05:03:50;;;;;;;16.30;8.60;;;8.10;99.90;;;;;;5100420;28;20044;-78
2023/10/17 05:06:21;;;;;;;17.70;8.63;;;8.10;99.90;;;;;;5099695;28;20016;-78
2023/10/17 06:17:24;;;;;;;21.98;12.27;;;7.70;99.90;;;;;;5103623;28;20027;-74
2023/10/17 06:19:49;;;;;;;22.65;12.98;;;7.80;99.90;;;;;;5102300;28;21308;-74
2023/10/17 06:30:27;;;;;;;28.30;13.27;;;7.90;99.90;;;;;;5103219;28;20024;-75
2023/10/17 06:35:44;;;;;;;;;;;7.90;99.90;;;;;;5103786;28;20097;-75
2023/10/17 06:38:10;;;;;;;22.13;13.68;;;8.00;99.90;;;;;;5101909;28;19904;-76
2023/10/17 06:40:45;;;;;;;23.35;13.77;;;8.00;99.90;;;;;;5102136;28;20036;-76
2023/10/17 06:43:27;;;;;;;24.95;14.20;;;8.00;99.90;;;;;;5101973;28;20039;-74
2023/10/17 06:46:04;;;;;;;24.05;14.13;;;8.20;99.90;;;;;;5102178;28;20043;-74
2023/10/17 06:48:33;;;;;;;29.02;14.05;;;8.10;99.90;;;;;;5101241;28;20028;-73
2023/10/17 06:53:48;;;;;;;26.48;14.15;;;8.20;99.90;;;;;;5100713;28;20032;-74
2023/10/17 06:56:16;;;;;;;31.70;15.20;;;8.30;99.90;;;;;;5098266;28;20047;-75
2023/10/17 06:58:42;;;;;;;33.03;16.55;;;8.30;99.90;;;;;;5101043;28;20036;-75
2023/10/17 07:01:24;;;;;;;28.52;15.45;;;8.30;99.90;;;;;;5102618;28;20057;-76
2023/10/17 07:03:54;;;;;;;30.75;16.38;;;8.40;99.90;;;;;;5101602;28;20040;-75
2023/10/17 07:06:24;;;;;;;25.95;14.82;;;8.40;99.90;;;;;;5101588;28;20024;-74
2023/10/17 07:08:50;;;;;;;29.23;14.70;;;8.60;99.90;;;;;;5101880;28;20020;-74
2023/10/17 07:14:10;;;;;;;26.75;13.07;;;8.60;99.90;;;;;;5098137;28;20024;-75
2023/10/17 07:16:42;;;;;;;29.95;14.27;;;8.70;99.90;;;;;;5098743;28;20032;-74
2023/10/17 07:24:33;;;;;;;26.48;13.15;;;8.90;99.90;;;;;;5099815;28;20028;-75
2023/10/17 07:27:01;;;;;;;23.80;12.63;;;8.80;99.90;;;;;;5102232;28;20203;-75
2023/10/17 07:29:27;;;;;;;26.35;12.77;;;8.90;99.90;;;;;;5099716;28;20032;-76
2023/10/17 07:31:54;;;;;;;24.35;13.02;;;9.00;99.90;;;;;;5102130;28;20072;-77
2023/10/17 07:34:33;;;;;;;20.75;11.52;;;9.00;99.90;;;;;;5099993;28;20032;-74
2023/10/17 07:37:12;;;;;;;20.42;10.48;;;9.00;99.90;;;;;;5101352;28;20036;-75
2023/10/17 07:39:38;;;;;;;23.73;10.90;;;9.00;99.90;;;;;;5098948;28;20032;-76
2023/10/17 07:42:04;;;;;;;21.38;10.60;;;9.10;99.90;;;;;;5100316;28;20407;-76
2023/10/17 07:44:34;;;;;;;25.33;11.07;;;9.10;99.90;;;;;;5100482;28;20016;-76
2023/10/17 07:49:35;;;;;;;18.20;9.93;;;9.20;99.90;;;;;;5100033;28;20028;-75
2023/10/17 07:52:07;;;;;;;19.10;9.32;;;9.20;99.90;;;;;;5098991;28;20016;-75
2023/10/17 07:54:38;;;;;;;20.63;9.93;;;9.30;99.90;;;;;;5097179;28;20048;-75
2023/10/17 07:57:05;;;;;;;19.05;9.95;;;9.40;99.90;;;;;;5099516;28;20030;-76
2023/10/17 07:59:31;;;;;;;19.20;9.27;;;9.40;99.90;;;;;;5100501;28;20545;-77
2023/10/17 08:02:08;;;;;;;18.08;10.05;;;9.40;99.90;;;;;;5102139;28;20020;-75
2023/10/17 08:04:38;;;;;;;17.33;9.88;;;9.50;99.90;;;;;;5101466;28;20388;-76
2023/10/17 08:07:04;;;;;;;18.83;9.93;;;9.50;99.90;;;;;;5096920;28;20027;-76
2023/10/17 08:09:36;;;;;;;15.85;9.32;;;9.50;99.90;;;;;;5099464;28;20036;-75
2023/10/17 08:12:05;;;;;;;16.38;8.57;;;9.60;99.90;;;;;;5100219;28;20020;-74
2023/10/17 08:14:44;;;;;;;18.70;10.32;;;9.70;99.90;;;;;;5100248;28;20647;-75
2023/10/17 08:17:11;;;;;;;16.90;8.98;;;9.70;99.90;;;;;;5101264;28;20020;-76
2023/10/17 08:22:25;;;;;;;13.63;8.13;;;9.80;99.90;;;;;;5101650;28;20069;-75
2023/10/17 08:24:51;;;;;;;18.75;9.35;;;9.90;99.90;;;;;;5101274;28;20031;-76
2023/10/17 08:29:49;;;;;;;14.95;8.30;;;9.90;99.90;;;;;;5092252;28;20028;-75
2023/10/17 08:34:48;;;;;;;14.95;7.38;;;10.00;99.90;;;;;;5102092;28;20020;-75
2023/10/17 08:37:27;;;;;;;17.35;7.40;;;10.10;99.90;;;;;;5101351;28;20024;-74
2023/10/17 08:39:53;;;;;;;17.20;7.38;;;10.20;99.90;;;;;;5098534;28;20142;-77
2023/10/17 08:42:30;;;;;;;11.77;6.38;;;10.20;99.90;;;;;;5101707;28;20404;-77
2023/10/17 08:44:57;;;;;;;15.02;7.53;;;10.30;99.90;;;;;;5100033;28;20038;-77
2023/10/17 08:47:27;;;;;;;16.00;8.60;;;10.30;99.90;;;;;;5102362;28;20039;-76
2023/10/17 08:49:55;;;;;;;15.00;8.52;;;10.40;99.90;;;;;;5104287;28;20020;-76
2023/10/17 08:52:31;;;;;;;14.80;7.95;;;10.40;99.90;;;;;;5104761;28;20107;-75
2023/10/17 08:54:56;;;;;;;18.80;8.38;;;10.50;99.90;;;;;;5105108;28;20043;-76
2023/10/17 08:57:23;;;;;;;11.55;6.47;;;10.60;99.90;;;;;;5105586;28;20032;-75
2023/10/17 09:02:43;;;;;;;9.98;5.65;;;10.80;99.90;;;;;;5105605;28;20031;-74
2023/10/17 09:05:18;;;;;;;9.35;5.68;;;10.90;99.90;;;;;;5104964;28;20036;-76
2023/10/17 09:07:48;;;;;;;11.68;6.10;;;10.90;99.90;;;;;;5103711;28;20023;-75
2023/10/17 09:10:37;;;;;;;12.25;6.45;;;10.90;99.90;;;;;;5104716;28;20024;-75
2023/10/17 09:16:08;;;;;;;12.70;6.22;;;11.00;99.90;;;;;;5105214;28;20035;-73
2023/10/17 09:18:40;;;;;;;14.88;6.63;;;11.10;99.90;;;;;;5105279;28;20111;-74
2023/10/17 09:21:06;;;;;;;12.27;5.95;;;11.20;99.90;;;;;;5103629;28;20439;-76
2023/10/17 09:23:32;;;;;;;12.02;5.93;;;11.40;99.90;;;;;;5102303;28;20047;-76
2023/10/17 09:26:00;;;;;;;13.32;5.72;;;11.40;99.90;;;;;;5104068;28;20492;-77
2023/10/17 09:28:28;;;;;;;7.35;4.57;;;11.40;99.90;;;;;;5104282;28;20031;-75
2023/10/17 09:31:08;;;;;;;9.40;4.72;;;11.40;99.90;;;;;;5102475;28;20047;-74
2023/10/17 09:33:43;;;;;;;12.88;5.35;;;11.40;99.90;;;;;;5103390;28;20051;-75
2023/10/17 09:36:10;;;;;;;5.00;3.72;;;11.50;99.90;;;;;;5101915;28;20036;-76
2023/10/17 09:38:43;;;;;;;8.23;4.10;;;11.50;99.90;;;;;;5103351;28;20074;-75
2023/10/17 09:41:19;;;;;;;11.27;4.40;;;11.70;99.90;;;;;;5103035;28;20036;-74
2023/10/17 09:43:47;;;;;;;10.82;4.93;;;11.90;99.90;;;;;;5104294;28;20116;-75
2023/10/17 09:46:13;;;;;;;8.85;5.22;;;12.00;99.90;;;;;;5103200;28;20047;-75
2023/10/17 09:48:45;;;;;;;6.97;4.45;;;12.00;99.90;;;;;;5102110;28;20092;-75
2023/10/17 09:51:19;;;;;;;11.38;4.82;;;12.10;99.90;;;;;;5103976;28;20538;-75
2023/10/17 09:53:45;;;;;;;;;;;12.10;99.90;;;;;;5104027;28;20028;-74
2023/10/17 09:56:19;;;;;;;9.25;3.95;;;12.20;99.90;;;;;;5101095;28;20069;-74
2023/10/17 09:58:50;;;;;;;6.05;3.55;;;12.30;99.90;;;;;;5103802;28;20480;-75
2023/10/17 10:01:24;;;;;;;7.07;3.60;;;12.40;99.90;;;;;;5103005;28;20062;-74
2023/10/17 10:03:53;;;;;;;7.20;3.30;;;12.60;99.90;;;;;;5102533;28;20111;-74
2023/10/17 10:06:25;;;;;;;7.50;2.95;;;12.80;99.90;;;;;;5103553;28;20021;-75
2023/10/17 10:08:55;;;;;;;7.57;2.88;;;12.80;99.90;;;;;;5101991;28;20024;-74
2023/10/17 10:11:41;;;;;;;6.38;2.40;;;12.90;99.90;;;;;;5102400;28;20047;-74
2023/10/17 10:14:11;;;;;;;5.85;2.45;;;12.90;99.90;;;;;;5103451;28;20031;-74
2023/10/17 10:16:51;;;;;;;10.02;3.13;;;12.90;99.90;;;;;;5103746;28;20031;-73
2023/10/17 10:19:17;;;;;;;8.07;3.10;;;13.00;99.90;;;;;;5102738;28;20092;-75
2023/10/17 10:21:59;;;;;;;10.38;3.08;;;13.10;99.90;;;;;;5101810;28;20098;-75
2023/10/17 10:24:31;;;;;;;8.27;3.00;;;13.20;99.90;;;;;;5102955;28;20042;-75
2023/10/17 10:27:24;;;;;;;7.45;3.25;;;13.20;99.90;;;;;;5102464;28;20028;-73
2023/10/17 10:29:56;;;;;;;7.28;2.80;;;13.30;99.90;;;;;;5103094;28;20028;-74
2023/10/17 10:32:25;;;;;;;7.28;2.40;;;13.30;99.90;;;;;;5101834;28;20388;-73
2023/10/17 10:34:51;;;;;;;5.05;2.00;;;13.30;99.90;;;;;;5100594;28;20083;-72
2023/10/17 10:37:17;;;;;;;4.75;1.20;;;13.40;99.90;;;;;;5102665;28;20032;-74
2023/10/17 10:40:52;;;;;;;5.00;1.40;;;13.50;99.90;;;;;;5101444;28;20048;-74
2023/10/17 10:43:01;;;;;;;5.32;1.55;;;13.60;99.90;;;;;;5096872;28;20042;-74
2023/10/17 10:45:28;;;;;;;3.42;1.30;;;13.70;99.90;;;;;;5100819;28;20127;-73
2023/10/17 10:48:01;;;;;;;4.03;1.73;;;13.80;99.90;;;;;;5099398;28;20020;-72
2023/10/17 10:50:30;;;;;;;2.40;1.35;;;13.80;99.90;;;;;;5102080;28;20022;-73
2023/10/17 10:52:59;;;;;;;4.25;1.20;;;13.70;99.90;;;;;;5102315;28;20027;-73
2023/10/17 10:55:25;;;;;;;6.25;1.50;;;13.70;99.90;;;;;;5102840;28;20067;-73
2023/10/17 10:57:52;;;;;;;6.03;1.30;;;13.80;99.90;;;;;;5102543;28;20050;-74
2023/10/17 11:00:18;;;;;;;7.47;1.30;;;13.80;99.90;;;;;;5100754;28;20075;-72
2023/10/17 11:02:43;;;;;;;4.18;1.60;;;13.90;99.90;;;;;;5100022;28;20024;-73
2023/10/17 11:05:14;;;;;;;3.85;1.55;;;14.00;99.90;;;;;;5101573;28;20040;-72
2023/10/17 11:07:41;;;;;;;6.85;1.50;;;14.00;99.90;;;;;;5099443;28;20038;-74
2023/10/17 11:10:10;;;;;;;3.95;1.30;;;14.00;99.90;;;;;;5101281;28;20028;-73
2023/10/17 11:12:37;;;;;;;2.95;1.45;;;14.10;99.90;;;;;;5100835;28;20026;-75
2023/10/17 11:15:16;;;;;;;2.40;1.20;;;14.10;99.90;;;;;;5101148;28;20032;-72
2023/10/17 11:17:42;;;;;;;1.85;0.95;;;14.20;99.90;;;;;;5102178;28;20031;-73
2023/10/17 11:20:27;;;;;;;6.18;1.30;;;14.40;99.90;;;;;;5102202;28;20036;-71
2023/10/17 11:22:54;;;;;;;1.73;0.90;;;14.60;99.90;;;;;;5102609;28;20450;-72
2023/10/17 11:25:27;;;;;;;4.05;1.27;;;14.80;99.90;;;;;;5100317;28;20099;-74
2023/10/17 11:27:56;;;;;;;1.75;0.80;;;14.90;99.90;;;;;;5100565;28;20016;-73
2023/10/17 11:30:35;;;;;;;2.22;1.00;;;15.00;99.90;;;;;;5101865;28;20076;-72
2023/10/17 11:33:05;;;;;;;2.97;0.80;;;15.20;99.90;;;;;;5101884;28;20633;-72
2023/10/17 11:35:34;;;;;;;2.40;0.93;;;;;;;;;;5101209;28;20047;-73
2023/10/17 11:38:01;;;;;;;2.80;0.90;;;15.50;99.90;;;;;;5100522;28;20028;-72
2023/10/17 11:40:30;;;;;;;2.47;0.80;;;15.00;99.90;;;;;;5101628;28;20031;-74
2023/10/17 11:42:59;;;;;;;4.90;1.10;;;14.60;99.90;;;;;;5101994;28;20150;-72
2023/10/17 11:45:34;;;;;;;4.22;0.95;;;14.30;99.90;;;;;;5101757;28;20042;-72
2023/10/17 11:48:14;;;;;;;6.90;0.93;;;14.10;99.90;;;;;;5100925;28;20096;-72
2023/10/17 11:50:40;;;;;;;2.38;0.80;;;13.80;99.90;;;;;;5099263;28;20028;-73
2023/10/17 11:53:09;;;;;;;3.45;1.05;;;13.50;99.90;;;;;;5096196;28;20024;-71
2023/10/17 11:55:47;;;;;;;2.35;0.80;;;13.40;99.90;;;;;;5099064;28;20050;-74
2023/10/17 11:58:24;;;;;;;3.33;0.68;;;13.30;99.90;;;;;;5100582;28;20033;-71
2023/10/17 12:00:51;;;;;;;2.20;0.93;;;13.20;99.90;;;;;;5101301;28;20389;-72
2023/10/17 12:03:19;;;;;;;4.82;1.20;;;13.10;99.90;;;;;;5101864;28;20028;-72
2023/10/17 12:05:49;;;;;;;5.13;1.00;;;13.10;99.90;;;;;;5099285;28;20046;-72
2023/10/17 12:08:29;;;;;;;5.47;0.77;;;13.70;99.90;;;;;;5098716;28;20056;-73
2023/10/17 12:10:55;;;;;;;3.85;0.70;;;14.40;99.90;;;;;;5100503;28;20020;-72
2023/10/17 12:13:20;;;;;;;1.63;0.68;;;15.40;99.90;;;;;;5101746;28;20028;-72
2023/10/17 12:15:46;;;;;;;3.38;0.80;;;16.20;99.90;;;;;;5102086;28;20043;-72
2023/10/17 12:18:14;;;;;;;3.95;0.73;;;17.00;99.90;;;;;;5100345;28;20024;-74
2023/10/17 12:20:40;;;;;;;3.38;0.85;;;17.50;99.90;;;;;;5105307;28;20039;-74
2023/10/17 12:23:14;;;;;;;0.90;0.50;;;17.90;99.90;;;;;;5106339;28;20466;-74
2023/10/17 12:25:43;;;;;;;2.00;0.65;;;18.30;99.90;;;;;;5105039;28;20028;-73
2023/10/17 12:28:08;;;;;;;6.22;0.90;;;18.10;99.90;;;;;;5104849;28;20028;-72
2023/10/17 12:30:39;;;;;;;2.30;0.90;;;17.50;99.90;;;;;;5104943;28;20039;-73
2023/10/17 12:33:05;;;;;;;5.15;0.80;;;17.00;99.90;;;;;;5105088;28;20118;-71
2023/10/17 12:35:33;;;;;;;3.65;0.80;;;16.40;99.90;;;;;;5105921;28;20024;-72
2023/10/17 12:37:59;;;;;;;2.65;1.13;;;15.90;99.90;;;;;;5105711;28;20024;-72
2023/10/17 12:40:26;;;;;;;6.50;1.15;;;15.40;99.90;;;;;;5102188;28;20031;-71
2023/10/17 12:42:55;;;;;;;6.95;1.77;;;15.00;99.90;;;;;;5105608;28;20453;-72
2023/10/17 12:45:21;;;;;;;3.20;1.30;;;14.70;99.90;;;;;;5096348;28;20016;-72
2023/10/17 12:47:50;;;;;;;4.00;0.82;;;14.40;99.90;;;;;;5099591;28;20032;-72
2023/10/17 12:50:18;;;;;;;1.40;0.77;;;14.20;99.90;;;;;;5102393;28;20502;-72
2023/10/17 12:52:44;;;;;;;3.30;0.98;;;14.00;99.90;;;;;;5104877;28;20091;-71
2023/10/17 12:55:11;;;;;;;4.25;0.80;;;13.90;99.90;;;;;;5102068;28;20072;-72
2023/10/17 12:57:38;;;;;;;3.17;0.88;;;14.30;99.90;;;;;;5102219;28;20074;-73
2023/10/17 13:00:12;;;;;;;3.67;0.60;;;14.50;99.90;;;;;;5090775;28;20070;-72
2023/10/17 13:02:40;;;;;;;1.20;0.63;;;14.40;99.90;;;;;;5093831;28;20465;-71
2023/10/17 13:05:10;;;;;;;1.80;0.70;;;14.30;99.90;;;;;;5103807;28;20031;-72
2023/10/17 13:07:40;;;;;;;2.10;0.80;;;14.10;99.90;;;;;;5103870;28;20095;-72
2023/10/17 13:10:07;;;;;;;1.45;0.43;;;14.10;99.90;;;;;;5104748;28;20024;-71
2023/10/17 13:12:33;;;;;;;2.28;0.60;;;14.00;99.90;;;;;;5103367;28;20027;-72
2023/10/17 13:14:59;;;;;;;3.92;0.90;;;14.10;99.90;;;;;;5104590;28;20039;-72
2023/10/17 13:17:25;;;;;;;3.33;0.88;;;14.30;99.90;;;;;;5103023;28;20036;-71
2023/10/17 13:19:51;;;;;;;5.93;0.90;;;14.70;99.90;;;;;;5103466;28;20503;-71
2023/10/17 13:22:20;;;;;;;1.60;0.65;;;14.90;99.90;;;;;;5102691;28;20028;-72
2023/10/17 13:24:47;;;;;;;2.90;0.70;;;14.80;99.90;;;;;;5104086;28;20031;-72
2023/10/17 13:27:13;;;;;;;2.70;0.80;;;14.90;99.90;;;;;;5102173;28;20035;-73
2023/10/17 13:29:39;;;;;;;4.10;0.60;;;14.80;99.90;;;;;;5103574;28;20675;-72
2023/10/17 13:32:07;;;;;;;1.23;0.60;;;14.60;99.90;;;;;;5103075;28;20016;-73
2023/10/17 13:34:36;;;;;;;0.90;0.50;;;14.40;99.90;;;;;;5104906;28;20024;-72
2023/10/17 13:37:07;;;;;;;5.28;0.80;;;14.30;99.90;;;;;;5103889;28;20083;-73
2023/10/17 13:39:33;;;;;;;2.40;0.60;;;14.20;99.90;;;;;;5104284;28;20385;-72
2023/10/17 13:42:02;;;;;;;2.58;0.65;;;14.00;99.90;;;;;;5102636;28;20032;-72
2023/10/17 13:44:28;;;;;;;2.95;0.75;;;14.00;99.90;;;;;;5103644;28;20032;-72
2023/10/17 13:46:55;;;;;;;4.20;0.60;;;13.80;99.90;;;;;;5104298;28;20024;-72
2023/10/17 13:49:21;;;;;;;2.00;0.60;;;13.60;99.90;;;;;;5102813;28;20062;-71
2023/10/17 13:51:47;;;;;;;3.33;0.70;;;13.50;99.90;;;;;;5103497;28;20052;-72
2023/10/17 13:54:16;;;;;;;2.35;0.75;;;13.40;99.90;;;;;;5103808;28;20028;-73
2023/10/17 13:56:42;;;;;;;3.17;0.90;;;13.30;99.90;;;;;;5103902;28;20024;-72
2023/10/17 13:59:13;;;;;;;3.08;0.88;;;13.20;99.90;;;;;;5104198;28;20209;-73
2023/10/17 14:01:42;;;;;;;1.65;0.57;;;13.10;99.90;;;;;;5104010;28;20043;-72
2023/10/17 14:04:10;;;;;;;2.95;0.90;;;13.00;99.90;;;;;;5104025;28;20506;-72
2023/10/17 14:06:39;;;;;;;4.07;0.80;;;12.80;99.90;;;;;;5103610;28;20055;-72
2023/10/17 14:09:17;;;;;;;5.82;1.08;;;12.70;99.90;;;;;;5102691;28;20031;-71
2023/10/17 14:11:47;;;;;;;2.88;0.70;;;12.60;99.90;;;;;;5103593;28;20062;-72
2023/10/17 14:14:13;;;;;;;2.25;0.75;;;12.90;99.90;;;;;;5103141;28;20096;-71
2023/10/17 14:16:43;;;;;;;3.55;0.70;;;13.60;99.90;;;;;;5102066;28;20522;-73
2023/10/17 14:22:08;;;;;;;5.03;0.95;;;15.70;99.90;;;;;;5104254;28;20089;-73
2023/10/17 14:27:24;;;;;;;5.38;0.90;;;17.20;99.90;;;;;;5103310;28;20075;-73
2023/10/17 14:29:53;;;;;;;2.88;0.50;;;17.60;99.90;;;;;;5103372;28;20055;-72
2023/10/17 14:32:21;;;;;;;2.60;0.65;;;17.90;99.90;;;;;;5103114;28;20040;-72
2023/10/17 14:34:47;;;;;;;2.53;0.60;;;17.90;99.90;;;;;;5103513;28;20024;-72
2023/10/17 14:37:14;;;;;;;2.20;0.70;;;17.90;99.90;;;;;;5103083;28;20024;-72
2023/10/17 14:39:40;;;;;;;2.47;0.75;;;17.90;99.90;;;;;;5101615;28;20095;-73
2023/10/17 14:42:10;;;;;;;2.15;0.73;;;17.90;99.90;;;;;;5102242;28;20016;-73
2023/10/17 14:44:41;;;;;;;5.10;1.02;;;17.80;99.90;;;;;;5102892;28;20024;-72
2023/10/17 14:47:07;;;;;;;5.18;0.80;;;17.60;99.90;;;;;;5103121;28;20452;-72
2023/10/17 14:49:32;;;;;;;5.45;1.17;;;17.30;99.90;;;;;;5102954;28;20032;-73
2023/10/17 14:51:58;;;;;;;3.38;1.00;;;17.00;99.90;;;;;;5102831;28;20079;-71
2023/10/17 14:54:24;;;;;;;3.95;0.73;;;16.80;99.90;;;;;;5101626;28;20052;-72
2023/10/17 14:56:51;;;;;;;2.70;0.63;;;16.60;99.90;;;;;;5103112;28;20032;-72
2023/10/17 14:59:17;;;;;;;2.03;0.70;;;16.50;99.90;;;;;;5102351;28;20044;-72
2023/10/17 15:01:43;;;;;;;2.92;0.80;;;16.50;99.90;;;;;;5102935;28;20046;-72
2023/10/17 15:04:10;;;;;;;4.70;0.70;;;16.60;99.90;;;;;;5102692;28;20022;-73
2023/10/17 15:06:36;;;;;;;4.55;0.88;;;16.80;99.90;;;;;;5102999;28;20031;-73
2023/10/17 15:09:06;;;;;;;3.15;0.80;;;16.90;99.90;;;;;;5102169;28;20066;-73